• Join FlightAware (Why Join?)
  • Login
  • US Flag GB Flag 
04:47 EDT


 

Airport Tracker/Info


-or-


 

Live Flight TrackerFlight Track Log ✈ DAL3698 ✈ 21-Apr-2013 ✈ KLAN - KMSP

Flight Track Log - Related Links

Times and Time Zones

All times are in EDT time to prevent confusion due to time zone crossing. See the DAL3698 flight status page for this flight to view local times or setup timezone preferences in your user account.

Time Position Orientation Groundspeed Altitude Reporting Facility
EDT Latitude Longitude Course Direction KTS MPH feet Rate Location/Type
07:43 42.7800 -84.6542 278° West 190 219 2,700  Level Cleveland Center
07:43 42.7831 -84.6747 281° West 208 239 3,500 2,160 Climbing Chicago Center
07:44 42.7814 -84.7608 269° West 224 258 5,800 2,400 Climbing Chicago Center
07:45 42.7264 -84.9378 279° West  Level FlightAware Approximate
07:45 42.7817 -84.8619 270° West 258 297 8,500  Level Chicago Center
07:46 42.7450 -85.0702 283° West  Level FlightAware Approximate
07:46 42.7828 -84.9669 271° West 275 316 10,600  Level Chicago Center
07:47 42.7580 -85.2039 276° West  Level FlightAware Approximate
07:47 42.7950 -85.0808 278° West 308 354 12,300  Level Chicago Center
07:48 42.7674 -85.3244 278° West  Level FlightAware Approximate
07:48 42.8269 -85.1897 292° West 311 358 14,100  Level Chicago Center
07:49 42.8594 -85.3014 292° West 318 366 16,500 1,860 Climbing Chicago Center
07:50 42.8983 -85.4389 291° West 323 372 18,000 1,440 Climbing Chicago Center
07:51 42.9314 -85.5544 291° West 328 377 19,500 1,380 Climbing Chicago Center
07:52 42.9742 -85.6675 297° West 339 390 20,900 1,320 Climbing Chicago Center
07:53 43.0328 -85.7739 307° West 351 404 22,200 1,200 Climbing Chicago Center
07:54 43.0939 -85.8747 310° West 351 404 23,400 1,020 Climbing Chicago Center
07:56 43.1964 -86.0978 302° West 358 412 25,300 900 Climbing Minneapolis Center
07:57 43.2292 -86.2278 289° West 361 415 26,100 780 Climbing Minneapolis Center
07:58 43.2617 -86.3586 289° West 364 419 26,900 720 Climbing Minneapolis Center
07:59 43.2950 -86.4919 289° West 368 423 27,600 540 Climbing Minneapolis Center
08:00 43.3278 -86.6264 289° West 372 428 28,000 180 Climbing Minneapolis Center
08:01 43.3606 -86.7658 288° West 380 437 28,000  Level Minneapolis Center
08:02 43.3958 -86.9097 289° West 393 452 28,000  Level Minneapolis Center
08:03 43.4294 -87.0517 288° West 393 452 28,000  Level Minneapolis Center
08:04 43.4636 -87.1944 288° West 394 453 28,000  Level Minneapolis Center
08:05 43.4986 -87.3481 287° West 391 450 28,000  Level Minneapolis Center
08:06 43.5392 -87.5111 289° West 386 444 28,000  Level Chicago Center
08:07 43.5706 -87.6497 287° West 383 441 28,000  Level Chicago Center
08:08 43.6031 -87.7886 288° West 383 441 28,000  Level Chicago Center
08:09 43.6283 -87.9025 287° West 379 436 28,000  Level Minneapolis Center
08:10 43.6603 -88.0425 288° West 381 438 28,000  Level Minneapolis Center
08:11 43.6908 -88.1806 287° West 378 435 28,000  Level Minneapolis Center
08:12 43.6775 -88.3214 263° West 378 435 28,000  Level Minneapolis Center
08:13 43.6503 -88.4836 257° West 376 433 28,000  Level Minneapolis Center
08:14 43.6256 -88.6225 256° West 377 434 28,000  Level Minneapolis Center
08:14 43.6217 -88.6469 258° West 379 436 28,000  Level Chicago Center
08:15 43.5964 -88.7847 256° West 376 433 28,000  Level Chicago Center
08:17 43.6322 -88.9417 288° West 387 445 28,000  Level Chicago Center
08:17 43.6708 -89.0286 302° West 391 450 28,000  Level Minneapolis Center
08:18 43.7289 -89.1619 301° West 401 461 28,000  Level Minneapolis Center
08:19 43.7881 -89.2964 301° West 407 468 28,000  Level Minneapolis Center
08:20 43.8469 -89.4322 301° West 411 473 28,000  Level Minneapolis Center
08:21 43.9075 -89.5697 301° West 416 479 28,000  Level Minneapolis Center
08:22 43.9672 -89.7075 301° West 417 480 28,000  Level Minneapolis Center
08:23 44.0261 -89.8467 301° West 417 480 28,000  Level Minneapolis Center
08:24 44.0875 -89.9836 302° West 417 480 28,000  Level Minneapolis Center
08:25 44.1475 -90.1208 301° West 416 479 28,000  Level Minneapolis Center
08:26 44.1975 -90.2664 296° West 414 476 28,000 -60 Level Minneapolis Center
08:27 44.2492 -90.4103 297° West 416 479 27,900 -600 Descending Minneapolis Center
08:28 44.3006 -90.5578 296° West 414 476 26,800 -1,140 Descending Minneapolis Center
08:29 44.3556 -90.7192 296° West 405 466 25,700 -1,080 Descending Minneapolis Center
08:30 44.4039 -90.8608 296° West 404 465 24,700 -900 Descending Minneapolis Center
08:31 44.4475 -90.9906 295° West 400 460 24,000 -360 Descending Minneapolis Center
08:32 44.4944 -91.1300 295° West 399 459 24,000  Level Minneapolis Center
08:33 44.5419 -91.2711 295° West 400 460 24,000 -780 Level Minneapolis Center
08:34 44.5881 -91.4097 295° West 398 458 22,500 -1,740 Descending Minneapolis Center
08:35 44.6333 -91.5456 295° West 391 450 20,500 -2,040 Descending Minneapolis Center
08:36 44.6764 -91.6753 295° West 377 434 18,500 -2,040 Descending Minneapolis Center
08:38 44.7242 -91.8219 295° West 354 407 16,500 -2,040 Descending Minneapolis Center
08:38 44.7558 -91.8878 304° West 336 387 15,200 -2,040 Descending FAA TRACON SMA TRACON (SMA)
08:38 44.7669 -91.9247 293° West 335 386 14,600 -1,980 Descending FAA TRACON SMA TRACON (SMA)
08:39 44.7822 -91.9703 295° West 333 383 13,900 -2,100 Descending FAA TRACON SMA TRACON (SMA)
08:39 44.7922 -92.0069 291° West 329 379 13,200 -1,800 Descending FAA TRACON SMA TRACON (SMA)
08:39 44.8044 -92.0425 296° West 327 376 12,700 -1,380 Descending FAA TRACON SMA TRACON (SMA)
08:40 44.8164 -92.0875 291° West 324 373 12,300 -1,140 Descending FAA TRACON SMA TRACON (SMA)
08:40 44.8272 -92.1228 293° West 322 371 11,900 -1,140 Descending FAA TRACON SMA TRACON (SMA)
08:41 44.8436 -92.1669 298° West 327 376 11,500 -1,140 Descending FAA TRACON SMA TRACON (SMA)
08:41 44.8533 -92.2022 291° West 322 371 11,200 -1,140 Descending FAA TRACON SMA TRACON (SMA)
08:41 44.8633 -92.2375 292° West 319 367 10,800 -1,200 Descending FAA TRACON SMA TRACON (SMA)
08:41 44.8744 -92.2725 294° West 319 367 10,400 -1,380 Descending FAA TRACON SMA TRACON (SMA)
08:42 44.8842 -92.3181 287° West 318 366 9,900 -600 Descending FAA TRACON SMA TRACON (SMA)
08:42 44.8817 -92.3556 265° West 314 361 10,000  Climbing FAA TRACON SMA TRACON (SMA)
08:42 44.8747 -92.3917 255° West 312 359 9,900  Descending FAA TRACON SMA TRACON (SMA)
08:43 44.8653 -92.4372 254° West 313 360 10,000 120 Climbing FAA TRACON SMA TRACON (SMA)
08:43 44.8589 -92.4736 256° West 311 358 10,000 -180 Level FAA TRACON SMA TRACON (SMA)
08:43 44.8517 -92.5097 254° West 312 359 9,900  Descending FAA TRACON SMA TRACON (SMA)
08:44 44.8453 -92.5461 256° West 310 357 10,000 120 Climbing FAA TRACON SMA TRACON (SMA)
08:44 44.8364 -92.5908 254° West 309 356 10,000 -180 Level FAA TRACON SMA TRACON (SMA)
08:44 44.8292 -92.6269 254° West 309 356 9,900 -180 Descending FAA TRACON SMA TRACON (SMA)
08:45 44.8228 -92.6625 256° West 308 354 9,900  Level FAA TRACON SMA TRACON (SMA)
08:45 44.8200 -92.7089 265° West 308 354 9,900  Level FAA TRACON SMA TRACON (SMA)
08:45 44.8194 -92.7458 269° West 308 354 9,900  Level FAA TRACON SMA TRACON (SMA)
08:46 44.8183 -92.7833 268° West 309 356 9,900  Level FAA TRACON SMA TRACON (SMA)
08:46 44.8178 -92.8289 269° West 303 349 9,900  Level FAA TRACON SMA TRACON (SMA)
08:46 44.8172 -92.8619 269° West 283 326 9,900  Level FAA TRACON SMA TRACON (SMA)
08:47 44.8169 -92.8939 269° West 267 307 9,900  Level FAA TRACON SMA TRACON (SMA)
08:47 44.8164 -92.9325 269° West 258 297 9,900  Level FAA TRACON SMA TRACON (SMA)
08:47 44.8156 -92.9631 268° West 254 292 9,900 -180 Level FAA TRACON SMA TRACON (SMA)
08:48 44.8150 -92.9939 269° West 255 293 9,800 -780 Descending FAA TRACON SMA TRACON (SMA)
08:48 44.8142 -93.0317 268° West 252 290 9,400 -1,440 Descending FAA TRACON SMA TRACON (SMA)
08:48 44.8136 -93.0628 269° West 255 293 8,900 -1,500 Descending FAA TRACON SMA TRACON (SMA)
08:49 44.8131 -93.0939 269° West 257 296 8,400 -1,500 Descending FAA TRACON SMA TRACON (SMA)
08:49 44.8119 -93.1319 268° West 253 291 7,900 -780 Descending FAA TRACON SMA TRACON (SMA)
08:49 44.8111 -93.1614 268° West 247 284 7,900  Level FAA TRACON SMA TRACON (SMA)
08:50 44.8100 -93.1914 267° West 247 284 7,900  Level FAA TRACON SMA TRACON (SMA)
08:50 44.8094 -93.2294 269° West 254 292 7,900  Level FAA TRACON SMA TRACON (SMA)
08:50 44.8089 -93.2603 269° West 255 293 7,900  Level FAA TRACON SMA TRACON (SMA)
08:51 44.8089 -93.2908 270° West 254 292 7,900 -300 Level FAA TRACON SMA TRACON (SMA)
08:51 44.8108 -93.3197 275° West 248 285 7,700 -900 Descending FAA TRACON SMA TRACON (SMA)
08:51 44.8222 -93.3453 302° West 251 289 7,300 -1,500 Descending FAA TRACON SMA TRACON (SMA)
08:52 44.8383 -93.3767 306° West 256 295 6,700 -1,680 Descending FAA TRACON SMA TRACON (SMA)
08:52 44.8517 -93.4025 306° West 260 299 6,200 -1,200 Descending FAA TRACON SMA TRACON (SMA)
08:52 44.8644 -93.4281 305° West 261 300 5,900 -480 Descending FAA TRACON SMA TRACON (SMA)
08:53 44.8814 -93.4606 306° West 264 304 5,900  Level FAA TRACON SMA TRACON (SMA)
08:53 44.8950 -93.4858 307° West 265 305 5,900  Level FAA TRACON SMA TRACON (SMA)
08:53 44.9078 -93.5108 306° West 259 298 5,900  Level FAA TRACON SMA TRACON (SMA)
08:54 44.9233 -93.5383 309° West 236 272 5,900  Level FAA TRACON SMA TRACON (SMA)
08:54 44.9347 -93.5581 309° West 215 247 5,900  Level FAA TRACON SMA TRACON (SMA)
08:54 44.9453 -93.5761 310° West 197 227 5,900 -780 Level FAA TRACON SMA TRACON (SMA)
08:55 44.9575 -93.5964 310° West 180 207 5,400 -1,380 Descending FAA TRACON SMA TRACON (SMA)
08:55 44.9694 -93.6114 318° Northwest 183 211 5,000 -780 Descending FAA TRACON SMA TRACON (SMA)
08:55 44.9861 -93.6106 North 206 237 4,900 -180 Descending FAA TRACON SMA TRACON (SMA)
08:56 45.0008 -93.5892 46° Northeast 216 249 4,900  Level FAA TRACON SMA TRACON (SMA)
08:56 45.0031 -93.5647 83° East 208 239 4,900  Level FAA TRACON SMA TRACON (SMA)
08:56 45.0039 -93.5411 87° East 198 228 4,900  Level FAA TRACON SMA TRACON (SMA)
08:57 45.0050 -93.5172 86° East 195 224 4,900  Level FAA TRACON SMA TRACON (SMA)
08:57 45.0008 -93.4917 103° East 184 212 4,900  Level FAA TRACON SMA TRACON (SMA)
08:57 44.9939 -93.4761 122° Southeast 161 185 4,900 -300 Level FAA TRACON SMA TRACON (SMA)
08:58 44.9861 -93.4608 126° Southeast 153 176 4,700 -780 Descending FAA TRACON SMA TRACON (SMA)
08:58 44.9769 -93.4414 124° Southeast 153 176 4,400 -900 Descending FAA TRACON SMA TRACON (SMA)
08:58 44.9700 -93.4258 122° Southeast 152 175 4,100 -780 Descending FAA TRACON SMA TRACON (SMA)
08:59 44.9642 -93.4106 118° Southeast 147 169 3,900 -900 Descending FAA TRACON SMA TRACON (SMA)
08:59 44.9569 -93.3917 118° Southeast 141 162 3,500 -900 Descending FAA TRACON SMA TRACON (SMA)
08:59 44.9508 -93.3786 123° Southeast 134 154 3,300 -600 Descending FAA TRACON SMA TRACON (SMA)
09:00 44.9450 -93.3658 123° Southeast 127 146 3,100 -780 Descending FAA TRACON SMA TRACON (SMA)
09:00 44.9383 -93.3508 122° Southeast 118 136 2,800 -780 Descending FAA TRACON SMA TRACON (SMA)
09:00 44.9331 -93.3397 124° Southeast 114 131 2,600 -600 Descending FAA TRACON SMA TRACON (SMA)
09:01 44.9278 -93.3275 121° Southeast 114 131 2,400 -600 Descending FAA TRACON SMA TRACON (SMA)